, MS

(GMT )
West Delta

Weather History for KDLP - February, 2014

Change the Weather History Date:

Monday, February 10, 2014

  Actual Average Record
Temperature  
Mean Temperature 68 °F -  
Max Temperature 73 °F - - ()
Min Temperature 64 °F - - ()
Cooling Degree Days 4    
Growing Degree Days 18 (Base 50)    
Moisture  
Dew Point 59 °F    
Average Humidity 74    
Maximum Humidity 83    
Minimum Humidity 57    
Precipitation  
Precipitation 0.00 in - - ()
Sea Level Pressure  
Sea Level Pressure 30.07 in    
Wind  
Wind Speed 9 mph (South)    
Max Wind Speed 15 mph    
Max Gust Speed -    
Visibility 10 miles    
Events      
Averages and records for this station are not official NWS values.
T = Trace of Precipitation, MM = Missing Value Source: NWS Daily Summary

Daily Weather History Graph

Daily Weather History Graph

Search for Another Location

Airport or City:

Trip Planner

Search our weather history database for the weather conditions in past years. The results will help you decide how hot, cold, wet, or windy it might be!

Date:

Astronomy

Feb. 10, 2014 Rise Set
Actual Time 6:41 AM CST 5:44 PM CST
Civil Twilight 6:16 AM CST 6:08 PM CST
Nautical Twilight 5:48 AM CST 6:36 PM CST
Astronomical Twilight 5:20 AM CST 7:04 PM CST
Moon 2:20 PM CST (2/10) 3:26 AM CST (2/10)
Length of Visible Light 11h 52m
Length of Day
11h 03m
Waxing Gibbous, 85% of the Moon is Illuminated
Feb 10
Waxing Gibbous
Feb 14
Full
Feb 22
Last Quarter
Mar 1
New
Mar 8
First Quarter

Hourly Weather History & Observations

Time (CST) Temp. Dew Point Humidity Pressure Visibility Wind Dir Wind Speed Gust Speed Precip Events Conditions
12:15 AM 68.0 °F 59.0 °F 73% 30.09 in 10.0 mi South 9.2 mph - N/A   Overcast
12:35 AM 68.0 °F 59.0 °F 73% 30.09 in 10.0 mi South 9.2 mph - N/A   Mostly Cloudy
12:55 AM 71.6 °F 59.0 °F 64% 30.08 in 10.0 mi South 11.5 mph - N/A   Mostly Cloudy
1:15 AM 66.2 °F 59.0 °F 78% 30.08 in 10.0 mi South 6.9 mph - N/A   Scattered Clouds
1:35 AM 66.2 °F 59.0 °F 78% 30.08 in 10.0 mi South 8.1 mph - N/A   Scattered Clouds
1:55 AM 66.2 °F 59.0 °F 78% 30.08 in 10.0 mi South 8.1 mph - N/A   Partly Cloudy
2:15 AM 66.2 °F 59.0 °F 78% 30.07 in 10.0 mi South 6.9 mph - N/A   Clear
2:35 AM 64.4 °F 59.0 °F 83% 30.07 in 10.0 mi South 6.9 mph - N/A   Scattered Clouds
2:55 AM 64.4 °F 59.0 °F 83% 30.07 in 10.0 mi South 8.1 mph - N/A   Mostly Cloudy
3:15 AM 64.4 °F 59.0 °F 83% 30.07 in 10.0 mi South 6.9 mph - N/A   Overcast
3:35 AM 66.2 °F 59.0 °F 78% 30.07 in 10.0 mi South 8.1 mph - N/A   Mostly Cloudy
3:55 AM 66.2 °F 59.0 °F 78% 30.07 in 10.0 mi SSW 6.9 mph - N/A   Overcast
4:15 AM 64.4 °F 59.0 °F 83% 30.07 in 10.0 mi SSW 5.8 mph - N/A   Overcast
4:35 AM 66.2 °F 59.0 °F 78% 30.07 in 10.0 mi SSW 5.8 mph - N/A   Overcast
4:55 AM 64.4 °F 59.0 °F 83% 30.08 in 10.0 mi SSW 4.6 mph - N/A   Overcast
5:15 AM 66.2 °F 59.0 °F 78% 30.08 in 10.0 mi SSW 4.6 mph - N/A   Overcast
5:35 AM 64.4 °F 59.0 °F 83% 30.08 in 10.0 mi SW 5.8 mph - N/A   Overcast
5:55 AM 66.2 °F 59.0 °F 78% 30.09 in 10.0 mi SSW 6.9 mph - N/A   Overcast
6:15 AM 66.2 °F 59.0 °F 78% 30.09 in 10.0 mi SSW 6.9 mph - N/A   Overcast
6:35 AM 66.2 °F 59.0 °F 78% 30.09 in 10.0 mi SSW 6.9 mph - N/A   Mostly Cloudy
6:55 AM 68.0 °F 59.0 °F 73% 30.08 in 10.0 mi South 13.8 mph - N/A   Partly Cloudy
7:15 AM 71.6 °F 59.0 °F 64% 30.08 in 10.0 mi South 12.7 mph - N/A   Clear
7:35 AM 73.4 °F 57.2 °F 57% 30.09 in 10.0 mi South 12.7 mph - N/A   Clear
7:55 AM 71.6 °F 57.2 °F 60% 30.09 in 10.0 mi South 13.8 mph - N/A   Clear
8:15 AM 69.8 °F 57.2 °F 64% 30.10 in 10.0 mi South 12.7 mph - N/A   Clear
8:35 AM 66.2 °F 57.2 °F 73% 30.10 in 10.0 mi SSW 12.7 mph - N/A   Clear
8:55 AM 66.2 °F 57.2 °F 73% 30.11 in 10.0 mi SSW 12.7 mph - N/A   Clear
9:15 AM 66.2 °F 57.2 °F 73% 30.12 in 10.0 mi South 10.4 mph - N/A   Clear
9:35 AM 66.2 °F 57.2 °F 73% 30.12 in 10.0 mi SSW 13.8 mph - N/A   Clear
9:55 AM 66.2 °F 57.2 °F 73% 30.12 in 10.0 mi SSW 11.5 mph - N/A   Clear
10:15 AM 66.2 °F 57.2 °F 73% 30.12 in 10.0 mi South 11.5 mph - N/A   Clear
10:35 AM 66.2 °F 57.2 °F 73% 30.12 in 10.0 mi South 11.5 mph - N/A   Clear
10:55 AM 73.4 °F 57.2 °F 57% 30.11 in 10.0 mi South 15.0 mph - N/A   Clear
11:15 AM 73.4 °F 59.0 °F 61% 30.11 in 10.0 mi South 13.8 mph - N/A   Clear
11:35 AM 71.6 °F 59.0 °F 64% 30.10 in 10.0 mi South 13.8 mph - N/A   Clear
11:55 AM 68.0 °F 59.0 °F 73% 30.09 in 10.0 mi South 13.8 mph - N/A   Clear
12:15 PM 69.8 °F 59.0 °F 68% 30.08 in 10.0 mi South 13.8 mph - N/A   Clear
12:35 PM 71.6 °F 59.0 °F 64% 30.07 in 10.0 mi South 12.7 mph - N/A   Clear
12:55 PM 71.6 °F 59.0 °F 64% 30.06 in 10.0 mi South 11.5 mph - N/A   Clear
1:15 PM 71.6 °F 59.0 °F 64% 30.05 in 10.0 mi South 13.8 mph - N/A   Clear
1:35 PM 69.8 °F 59.0 °F 68% 30.04 in 10.0 mi South 10.4 mph - N/A   Clear
1:55 PM 66.2 °F 59.0 °F 78% 30.04 in 10.0 mi SSE 12.7 mph - N/A   Scattered Clouds
2:15 PM 68.0 °F 59.0 °F 73% 30.04 in 10.0 mi South 9.2 mph - N/A   Mostly Cloudy
2:35 PM 66.2 °F 59.0 °F 78% 30.04 in 10.0 mi SW 4.6 mph - N/A   Overcast
2:55 PM 66.2 °F 59.0 °F 78% 30.03 in 10.0 mi SSW 8.1 mph - N/A   Overcast
3:15 PM 64.4 °F 59.0 °F 83% 30.03 in 10.0 mi SW 8.1 mph - N/A   Mostly Cloudy
3:35 PM 64.4 °F 59.0 °F 83% 30.03 in 10.0 mi SSW 5.8 mph - N/A   Clear
3:55 PM 66.2 °F 60.8 °F 83% 30.04 in 10.0 mi SSW 5.8 mph - N/A   Mostly Cloudy
4:15 PM 68.0 °F 59.0 °F 73% 30.04 in 10.0 mi South 9.2 mph - N/A   Overcast
4:35 PM 69.8 °F 59.0 °F 68% 30.04 in 10.0 mi South 9.2 mph - N/A   Overcast
4:55 PM 69.8 °F 59.0 °F 68% 30.03 in 10.0 mi South 10.4 mph - N/A   Mostly Cloudy
5:15 PM 68.0 °F 59.0 °F 73% 30.04 in 10.0 mi SSE 9.2 mph - N/A   Partly Cloudy
5:35 PM 66.2 °F 59.0 °F 78% 30.04 in 10.0 mi SSE 9.2 mph - N/A   Clear
5:55 PM 66.2 °F 59.0 °F 78% 30.04 in 10.0 mi South 10.4 mph - N/A   Clear
6:15 PM 68.0 °F 59.0 °F 73% 30.04 in 10.0 mi South 10.4 mph - N/A   Clear
6:35 PM 68.0 °F 59.0 °F 73% 30.04 in 10.0 mi South 12.7 mph - N/A   Clear
6:55 PM 64.4 °F 59.0 °F 83% 30.04 in 10.0 mi SSE 11.5 mph - N/A   Clear
7:15 PM 66.2 °F 59.0 °F 78% 30.05 in 10.0 mi South 11.5 mph - N/A   Clear
7:35 PM 64.4 °F 59.0 °F 83% 30.05 in 10.0 mi South 10.4 mph - N/A   Clear
7:55 PM 66.2 °F 59.0 °F 78% 30.05 in 10.0 mi South 10.4 mph - N/A   Mostly Cloudy
8:15 PM 64.4 °F 57.2 °F 77% 30.05 in 10.0 mi South 10.4 mph - N/A   Mostly Cloudy
8:35 PM 64.4 °F 57.2 °F 77% 30.05 in 10.0 mi SSE 11.5 mph - N/A   Clear
8:55 PM 68.0 °F 59.0 °F 73% 30.05 in 10.0 mi South 11.5 mph - N/A   Clear
9:15 PM 66.2 °F 59.0 °F 78% 30.05 in 10.0 mi South 9.2 mph - N/A   Clear
9:35 PM 68.0 °F 60.8 °F 78% 30.05 in 10.0 mi South 8.1 mph - N/A   Clear
9:55 PM 64.4 °F 59.0 °F 83% 30.05 in 10.0 mi South 6.9 mph - N/A   Clear
10:15 PM 66.2 °F 59.0 °F 78% 30.04 in 10.0 mi SSE 8.1 mph - N/A   Clear
10:35 PM 68.0 °F 59.0 °F 73% 30.04 in 10.0 mi SSE 11.5 mph - N/A   Clear
10:55 PM 68.0 °F 57.2 °F 68% 30.04 in 10.0 mi South 10.4 mph - N/A   Clear
11:15 PM 68.0 °F 59.0 °F 73% 30.03 in 10.0 mi South 10.4 mph - N/A   Clear
11:35 PM 68.0 °F 59.0 °F 73% 30.03 in 10.0 mi South 10.4 mph - N/A   Clear
11:55 PM 66.2 °F 60.8 °F 83% 30.03 in 10.0 mi South 9.2 mph - N/A   Clear